createdAt,value
2023-06-07T00:02:36.812Z,100.00
2023-06-07T00:05:08.787Z,100.00
2023-06-07T00:07:36.705Z,100.00
2023-06-07T00:10:04.598Z,100.00
2023-06-07T00:12:31.494Z,100.00
2023-06-07T00:14:58.239Z,100.00
2023-06-07T00:17:25.655Z,100.00
2023-06-07T00:19:53.988Z,100.00
2023-06-07T00:22:20.602Z,100.00
2023-06-07T00:24:47.146Z,100.00
2023-06-07T00:27:13.718Z,100.00
2023-06-07T00:29:40.600Z,100.00
2023-06-07T00:32:07.255Z,100.00
2023-06-07T00:34:33.858Z,100.00
2023-06-07T00:37:00.782Z,100.00
2023-06-07T00:39:29.464Z,100.00
2023-06-07T00:41:56.436Z,100.00
2023-06-07T00:44:23.968Z,100.00
2023-06-07T00:46:50.526Z,100.00
2023-06-07T00:49:17.654Z,100.00
2023-06-07T00:51:45.828Z,100.00
2023-06-07T00:54:14.006Z,100.00
2023-06-07T00:56:44.397Z,100.00
2023-06-07T00:59:11.196Z,100.00
2023-06-07T01:01:37.951Z,100.00
2023-06-07T01:04:07.061Z,100.00
2023-06-07T01:06:33.746Z,100.00
2023-06-07T01:09:00.550Z,100.00
2023-06-07T01:11:27.844Z,100.00
2023-06-07T01:13:54.716Z,100.00
2023-06-07T01:16:21.314Z,100.00
2023-06-07T01:18:47.982Z,100.00
2023-06-07T01:21:19.871Z,100.00
2023-06-07T01:23:47.039Z,100.00
2023-06-07T01:26:13.943Z,100.00
2023-06-07T01:28:42.974Z,100.00
2023-06-07T01:31:10.234Z,100.00
2023-06-07T01:33:37.615Z,100.00
2023-06-07T01:36:05.473Z,100.00
2023-06-07T01:38:32.930Z,100.00
2023-06-07T01:41:00.990Z,100.00
2023-06-07T01:43:28.004Z,100.00
2023-06-07T01:45:54.888Z,100.00
2023-06-07T01:48:21.722Z,100.00
2023-06-07T01:50:48.235Z,100.00
2023-06-07T01:53:14.756Z,100.00
2023-06-07T01:55:42.843Z,100.00
2023-06-07T01:58:30.452Z,100.00
2023-06-07T02:01:18.028Z,100.00
2023-06-07T02:03:49.860Z,100.00
2023-06-07T02:06:20.382Z,100.00
2023-06-07T02:08:51.707Z,100.00
2023-06-07T02:11:18.833Z,100.00
2023-06-07T02:13:45.830Z,100.00
2023-06-07T02:16:12.544Z,100.00
2023-06-07T02:18:41.787Z,100.00
2023-06-07T02:21:11.852Z,100.00
2023-06-07T02:23:40.942Z,100.00
2023-06-07T02:26:07.571Z,100.00
2023-06-07T02:28:34.072Z,100.00
2023-06-07T02:31:00.935Z,100.00
2023-06-07T02:33:27.689Z,100.00
2023-06-07T02:35:54.266Z,100.00
2023-06-07T02:38:21.181Z,100.00
2023-06-07T02:40:47.751Z,100.00
2023-06-07T02:43:15.245Z,100.00
2023-06-07T02:45:41.749Z,100.00
2023-06-07T02:48:08.378Z,100.00
2023-06-07T02:50:35.129Z,100.00
2023-06-07T02:53:02.235Z,100.00
2023-06-07T02:55:28.751Z,100.00
2023-06-07T02:57:55.462Z,100.00
2023-06-07T03:00:28.767Z,100.00
2023-06-07T03:03:06.433Z,100.00
2023-06-07T03:05:35.730Z,100.00
2023-06-07T03:08:11.260Z,100.00
2023-06-07T03:10:39.489Z,100.00
2023-06-07T03:13:08.444Z,100.00
2023-06-07T03:15:39.374Z,100.00
2023-06-07T03:18:06.118Z,100.00
2023-06-07T03:20:36.645Z,100.00
2023-06-07T03:23:10.568Z,100.00
2023-06-07T03:25:41.326Z,100.00
2023-06-07T03:28:08.010Z,100.00
2023-06-07T03:30:41.430Z,100.00
2023-06-07T03:33:08.658Z,100.00
2023-06-07T03:35:37.542Z,100.00
2023-06-07T03:38:05.601Z,100.00
2023-06-07T03:40:32.565Z,100.00
2023-06-07T03:43:00.852Z,100.00
2023-06-07T03:45:28.205Z,100.00
2023-06-07T03:48:02.012Z,100.00
2023-06-07T03:50:31.081Z,100.00
2023-06-07T03:52:57.886Z,100.00
2023-06-07T03:55:24.523Z,100.00
2023-06-07T03:57:54.577Z,100.00
2023-06-07T04:00:22.188Z,100.00
2023-06-07T04:02:56.046Z,100.00
2023-06-07T04:05:26.117Z,100.00
2023-06-07T04:07:54.539Z,100.00
2023-06-07T04:10:22.718Z,100.00
2023-06-07T04:12:50.880Z,100.00
2023-06-07T04:15:18.386Z,100.00
2023-06-07T04:17:49.018Z,100.00
2023-06-07T04:20:17.404Z,100.00
2023-06-07T04:22:52.942Z,100.00
2023-06-07T04:25:27.790Z,100.00
2023-06-07T04:28:00.956Z,100.00
2023-06-07T04:30:36.841Z,100.00
2023-06-07T04:33:13.897Z,100.00
2023-06-07T04:35:45.743Z,100.00
2023-06-07T04:38:17.397Z,100.00
2023-06-07T04:40:50.796Z,100.00
2023-06-07T04:43:38.146Z,100.00
2023-06-07T04:46:10.727Z,100.00
2023-06-07T04:48:42.798Z,100.00
2023-06-07T04:51:11.587Z,100.00
2023-06-07T04:53:44.266Z,100.00
2023-06-07T04:56:16.572Z,100.00
2023-06-07T04:58:44.335Z,100.00
2023-06-07T05:01:17.176Z,100.00
2023-06-07T05:03:45.199Z,100.00
2023-06-07T05:06:20.329Z,100.00
2023-06-07T05:08:52.135Z,100.00
2023-06-07T05:11:18.928Z,100.00
2023-06-07T05:13:47.925Z,100.00
2023-06-07T05:16:18.689Z,100.00
2023-06-07T05:18:50.452Z,100.00
2023-06-07T05:21:19.415Z,100.00
2023-06-07T05:23:47.053Z,100.00
2023-06-07T05:26:14.386Z,100.00
2023-06-07T05:28:41.738Z,100.00
2023-06-07T05:31:11.922Z,100.00
2023-06-07T05:33:40.378Z,100.00
2023-06-07T05:36:08.150Z,100.00
2023-06-07T05:38:36.653Z,100.00
2023-06-07T05:41:03.480Z,100.00
2023-06-07T05:43:30.571Z,100.00
2023-06-07T05:45:57.444Z,100.00
2023-06-07T05:48:24.634Z,100.00
2023-06-07T05:50:53.298Z,100.00
2023-06-07T05:53:21.106Z,100.00
2023-06-07T05:55:49.423Z,100.00
2023-06-07T05:58:16.928Z,100.00
2023-06-07T06:00:45.654Z,100.00
2023-06-07T06:03:13.038Z,100.00
2023-06-07T06:05:40.529Z,100.00
2023-06-07T06:08:08.540Z,100.00
2023-06-07T06:10:36.479Z,100.00
2023-06-07T06:13:03.543Z,100.00
2023-06-07T06:15:30.176Z,100.00
2023-06-07T06:17:56.977Z,100.00
2023-06-07T06:20:23.573Z,100.00
2023-06-07T06:22:50.085Z,100.00
2023-06-07T06:25:16.626Z,100.00
2023-06-07T06:27:43.244Z,100.00
2023-06-07T06:30:10.014Z,100.00
2023-06-07T06:32:36.889Z,100.00
2023-06-07T06:35:04.355Z,100.00
2023-06-07T06:37:30.949Z,100.00
2023-06-07T06:39:57.515Z,100.00
2023-06-07T06:42:24.386Z,100.00
2023-06-07T06:45:20.836Z,100.00
2023-06-07T06:47:47.364Z,100.00
2023-06-07T06:50:31.438Z,100.00
2023-06-07T06:53:00.174Z,100.00
2023-06-07T06:55:26.735Z,100.00
2023-06-07T06:57:53.371Z,100.00
2023-06-07T07:00:20.200Z,100.00
2023-06-07T07:02:47.056Z,100.00
2023-06-07T07:05:13.759Z,100.00
2023-06-07T07:07:40.614Z,100.00
2023-06-07T07:10:07.780Z,100.00
2023-06-07T07:12:37.248Z,100.00
2023-06-07T07:15:04.669Z,100.00
2023-06-07T07:17:32.127Z,100.00
2023-06-07T07:19:58.752Z,100.00
2023-06-07T07:22:27.835Z,100.00
2023-06-07T07:24:59.220Z,100.00
2023-06-07T07:27:28.695Z,100.00
2023-06-07T07:29:55.183Z,100.00
2023-06-07T07:32:21.725Z,100.00
2023-06-07T07:34:48.322Z,100.00
2023-06-07T07:37:15.476Z,100.00
2023-06-07T07:39:42.034Z,100.00
2023-06-07T07:42:08.738Z,100.00
2023-06-07T07:44:35.593Z,100.00
2023-06-07T07:47:02.164Z,100.00
2023-06-07T07:49:28.796Z,100.00
2023-06-07T07:51:58.234Z,100.00
2023-06-07T07:54:24.810Z,100.00
2023-06-07T07:56:51.367Z,100.00
2023-06-07T07:59:17.941Z,100.00
2023-06-07T08:01:46.544Z,100.00
2023-06-07T08:04:13.552Z,100.00
2023-06-07T08:06:40.209Z,100.00
2023-06-07T08:09:07.077Z,100.00
2023-06-07T08:11:33.716Z,100.00
2023-06-07T08:14:00.238Z,100.00
2023-06-07T08:16:27.134Z,100.00
2023-06-07T08:18:57.574Z,100.00
2023-06-07T08:21:24.398Z,100.00
2023-06-07T08:23:51.139Z,100.00
2023-06-07T08:26:17.787Z,100.00
2023-06-07T08:28:44.440Z,100.00
2023-06-07T08:31:13.839Z,100.00
2023-06-07T08:33:40.534Z,99.64
2023-06-07T08:36:07.082Z,100.00
2023-06-07T08:38:33.599Z,99.08
2023-06-07T08:41:00.312Z,100.00
2023-06-07T08:43:27.149Z,100.00
2023-06-07T08:45:54.141Z,100.00
2023-06-07T08:48:21.026Z,100.00
2023-06-07T08:50:48.274Z,100.00
2023-06-07T08:53:15.272Z,100.00
2023-06-07T08:55:42.979Z,100.00
2023-06-07T08:58:09.924Z,98.88
2023-06-07T09:00:37.273Z,98.83
2023-06-07T09:03:04.437Z,96.29
2023-06-07T09:05:31.098Z,96.58
2023-06-07T09:07:57.664Z,96.13
2023-06-07T09:10:24.915Z,94.61
2023-06-07T09:12:51.460Z,93.39
2023-06-07T09:15:19.897Z,94.20
2023-06-07T09:18:05.363Z,94.13
2023-06-07T09:20:32.791Z,93.11
2023-06-07T09:23:04.437Z,92.61
2023-06-07T09:25:31.521Z,91.72
2023-06-07T09:27:58.207Z,92.08
2023-06-07T09:30:24.948Z,91.90
2023-06-07T09:32:51.762Z,91.95
2023-06-07T09:35:20.195Z,92.58
2023-06-07T09:37:52.106Z,89.77
2023-06-07T09:40:19.673Z,89.81
2023-06-07T09:42:55.925Z,88.25
2023-06-07T09:45:22.614Z,86.38
2023-06-07T09:47:49.343Z,87.58
2023-06-07T09:50:16.065Z,86.06
2023-06-07T09:52:42.644Z,84.00
2023-06-07T09:55:26.072Z,86.04
2023-06-07T09:57:52.759Z,85.80
2023-06-07T10:00:20.432Z,86.71
2023-06-07T10:02:48.344Z,87.45
2023-06-07T10:05:15.669Z,88.02
2023-06-07T10:07:45.878Z,86.70
2023-06-07T10:10:15.656Z,86.55
2023-06-07T10:12:43.994Z,83.25
2023-06-07T10:15:30.890Z,82.78
2023-06-07T10:18:16.291Z,82.89
2023-06-07T10:20:50.874Z,83.39
2023-06-07T10:23:30.074Z,82.50
2023-06-07T10:26:04.168Z,81.83
2023-06-07T10:28:38.004Z,81.73
2023-06-07T10:31:08.732Z,81.60
2023-06-07T10:33:35.440Z,80.26
2023-06-07T10:36:02.560Z,82.21
2023-06-07T10:38:33.379Z,80.78
2023-06-07T10:41:01.082Z,79.91
2023-06-07T10:43:28.541Z,79.27
2023-06-07T10:46:13.872Z,80.01
2023-06-07T10:48:44.809Z,78.66
2023-06-07T10:51:11.370Z,75.83
2023-06-07T10:53:51.211Z,77.48
2023-06-07T10:56:28.124Z,76.28
2023-06-07T10:58:56.513Z,75.34
2023-06-07T11:01:23.926Z,72.40
2023-06-07T11:03:50.652Z,73.45
2023-06-07T11:06:17.433Z,71.01
2023-06-07T11:08:44.366Z,70.85
2023-06-07T11:11:29.655Z,71.62
2023-06-07T11:13:56.206Z,71.11
2023-06-07T11:16:25.965Z,70.77
2023-06-07T11:18:56.650Z,69.37
2023-06-07T11:21:27.171Z,68.69
2023-06-07T11:24:26.618Z,67.76
2023-06-07T11:26:53.278Z,66.86
2023-06-07T11:29:20.498Z,65.39
2023-06-07T11:31:47.829Z,66.70
2023-06-07T11:34:15.977Z,65.00
2023-06-07T11:36:42.611Z,65.07
2023-06-07T11:39:10.161Z,63.13
2023-06-07T11:41:36.647Z,65.00
2023-06-07T11:44:03.248Z,64.96
2023-06-07T11:46:36.466Z,63.98
2023-06-07T11:49:04.177Z,62.93
2023-06-07T11:51:30.874Z,64.05
2023-06-07T11:54:00.881Z,61.89
2023-06-07T11:56:28.814Z,61.68
2023-06-07T11:58:55.426Z,61.90
2023-06-07T12:01:22.021Z,62.55
2023-06-07T12:03:49.675Z,63.00
2023-06-07T12:06:16.382Z,64.80
2023-06-07T12:08:42.937Z,65.78
2023-06-07T12:11:09.442Z,67.46
2023-06-07T12:13:40.624Z,66.81
2023-06-07T12:16:11.166Z,67.50
2023-06-07T12:18:39.278Z,66.20
2023-06-07T12:21:08.223Z,66.61
2023-06-07T12:23:38.640Z,65.27
2023-06-07T12:26:17.880Z,65.78
2023-06-07T12:28:44.803Z,62.01
2023-06-07T12:31:14.921Z,59.92
2023-06-07T12:33:52.334Z,61.23
2023-06-07T12:36:18.943Z,58.87
2023-06-07T12:38:45.580Z,60.10
2023-06-07T12:41:12.606Z,60.52
2023-06-07T12:43:45.386Z,60.67
2023-06-07T12:46:12.380Z,59.02
2023-06-07T12:48:39.773Z,57.53
2023-06-07T12:51:07.581Z,57.09
2023-06-07T12:53:34.630Z,56.01
2023-06-07T12:56:01.451Z,55.56
2023-06-07T12:58:28.223Z,55.34
2023-06-07T13:00:55.072Z,57.19
2023-06-07T13:03:22.033Z,56.16
2023-06-07T13:05:48.957Z,56.57
2023-06-07T13:08:17.023Z,57.38
2023-06-07T13:10:43.664Z,57.78
2023-06-07T13:13:10.440Z,58.09
2023-06-07T13:15:37.698Z,58.30
2023-06-07T13:18:04.624Z,60.79
2023-06-07T13:20:31.572Z,57.68
2023-06-07T13:22:58.318Z,58.49
2023-06-07T13:25:25.089Z,57.93
2023-06-07T13:27:51.898Z,57.03
2023-06-07T13:30:19.185Z,58.98
2023-06-07T13:32:46.802Z,58.53
2023-06-07T13:35:13.641Z,55.39
2023-06-07T13:37:40.642Z,57.78
2023-06-07T13:40:08.084Z,57.00
2023-06-07T13:42:35.309Z,58.16
2023-06-07T13:45:02.377Z,58.59
2023-06-07T13:47:31.242Z,58.00
2023-06-07T13:49:58.909Z,56.27
2023-06-07T13:52:25.928Z,58.20
2023-06-07T13:54:53.790Z,57.78
2023-06-07T13:57:21.424Z,59.54
2023-06-07T13:59:48.891Z,59.83
2023-06-07T14:02:19.193Z,59.48
2023-06-07T14:04:47.984Z,60.73
2023-06-07T14:07:14.998Z,61.96
2023-06-07T14:09:41.810Z,61.71
2023-06-07T14:12:11.565Z,61.10
2023-06-07T14:14:39.287Z,63.76
2023-06-07T14:17:06.683Z,61.15
2023-06-07T14:19:33.630Z,61.37
2023-06-07T14:22:00.478Z,61.38
2023-06-07T14:24:27.329Z,61.81
2023-06-07T14:26:54.429Z,62.05
2023-06-07T14:29:21.365Z,60.94
2023-06-07T14:31:48.214Z,62.95
2023-06-07T14:34:16.451Z,60.90
2023-06-07T14:36:44.752Z,62.56
2023-06-07T14:39:11.654Z,60.87
2023-06-07T14:41:38.358Z,63.61
2023-06-07T14:44:05.347Z,64.31
2023-06-07T14:46:32.075Z,61.91
2023-06-07T14:48:58.915Z,61.54
2023-06-07T14:51:27.331Z,62.69
2023-06-07T14:53:54.104Z,61.48
2023-06-07T14:56:21.721Z,64.81
2023-06-07T14:58:48.764Z,64.62
2023-06-07T15:01:15.983Z,64.65
2023-06-07T15:03:44.058Z,63.64
2023-06-07T15:06:11.257Z,64.96
2023-06-07T15:08:38.240Z,65.68
2023-06-07T15:11:05.069Z,67.14
2023-06-07T15:13:31.879Z,67.94
2023-06-07T15:15:58.813Z,68.11
2023-06-07T15:18:26.433Z,69.76
2023-06-07T15:20:53.353Z,70.37
2023-06-07T15:23:20.281Z,69.98
2023-06-07T15:25:47.566Z,67.78
2023-06-07T15:28:14.458Z,64.01
2023-06-07T15:30:41.506Z,65.19
2023-06-07T15:33:08.271Z,65.37
2023-06-07T15:35:35.161Z,65.35
2023-06-07T15:38:01.949Z,64.25
2023-06-07T15:40:28.859Z,64.98
2023-06-07T15:42:55.541Z,67.20
2023-06-07T15:45:22.206Z,68.20
2023-06-07T15:47:57.155Z,69.45
2023-06-07T15:50:23.937Z,70.20
2023-06-07T15:52:50.633Z,71.36
2023-06-07T15:55:17.429Z,74.97
2023-06-07T15:57:44.099Z,77.46
2023-06-07T16:00:16.473Z,80.39
2023-06-07T16:02:54.999Z,83.98
2023-06-07T16:05:22.401Z,85.95
2023-06-07T16:07:49.106Z,87.23
2023-06-07T16:10:16.001Z,88.34
2023-06-07T16:12:43.292Z,89.04
2023-06-07T16:15:10.748Z,89.31
2023-06-07T16:17:37.508Z,88.23
2023-06-07T16:20:05.175Z,87.24
2023-06-07T16:22:32.064Z,86.20
2023-06-07T16:24:58.886Z,87.41
2023-06-07T16:27:25.709Z,88.32
2023-06-07T16:29:52.480Z,89.73
2023-06-07T16:32:19.378Z,90.02
2023-06-07T16:34:47.043Z,90.64
2023-06-07T16:37:13.658Z,90.26
2023-06-07T16:39:40.197Z,90.29
2023-06-07T16:42:06.833Z,90.66
2023-06-07T16:44:33.395Z,90.30
2023-06-07T16:47:00.243Z,91.32
2023-06-07T16:49:27.556Z,93.41
2023-06-07T16:51:55.533Z,94.31
2023-06-07T16:54:22.105Z,94.85
2023-06-07T16:56:48.696Z,95.39
2023-06-07T16:59:15.536Z,95.81
2023-06-07T17:01:42.239Z,96.76
2023-06-07T17:04:09.886Z,97.18
2023-06-07T17:06:38.556Z,97.13
2023-06-07T17:09:05.424Z,96.92
2023-06-07T17:11:32.069Z,97.52
2023-06-07T17:13:58.938Z,98.06
2023-06-07T17:16:27.460Z,97.69
2023-06-07T17:18:54.200Z,97.63
2023-06-07T17:21:20.798Z,97.45
2023-06-07T17:23:47.441Z,97.64
2023-06-07T17:26:13.967Z,97.58
2023-06-07T17:28:40.687Z,98.18
2023-06-07T17:31:07.368Z,98.40
2023-06-07T17:33:34.658Z,98.99
2023-06-07T17:36:01.163Z,99.53
2023-06-07T17:38:27.868Z,99.72
2023-06-07T17:40:54.359Z,99.44
2023-06-07T17:43:20.898Z,98.79
2023-06-07T17:45:47.511Z,98.16
2023-06-07T17:48:14.312Z,98.64
2023-06-07T17:50:46.546Z,98.90
2023-06-07T17:53:14.845Z,99.70
2023-06-07T17:55:43.541Z,100.00
2023-06-07T17:58:10.044Z,100.00
2023-06-07T18:00:36.554Z,100.00
2023-06-07T18:03:03.895Z,100.00
2023-06-07T18:05:30.959Z,100.00
2023-06-07T18:07:57.466Z,100.00
2023-06-07T18:10:24.036Z,100.00
2023-06-07T18:12:50.777Z,100.00
2023-06-07T18:15:17.333Z,100.00
2023-06-07T18:17:44.014Z,100.00
2023-06-07T18:20:10.768Z,100.00
2023-06-07T18:22:37.400Z,100.00
2023-06-07T18:25:04.231Z,100.00
2023-06-07T18:27:30.918Z,100.00
2023-06-07T18:29:57.575Z,100.00
2023-06-07T18:32:24.498Z,100.00
2023-06-07T18:34:51.836Z,100.00
2023-06-07T18:37:18.559Z,100.00
2023-06-07T18:39:45.106Z,100.00
2023-06-07T18:42:13.711Z,100.00
2023-06-07T18:44:42.387Z,100.00
2023-06-07T18:47:09.069Z,100.00
2023-06-07T18:49:35.688Z,100.00
2023-06-07T18:52:03.374Z,100.00
2023-06-07T18:54:29.913Z,100.00
2023-06-07T18:56:58.234Z,100.00
2023-06-07T18:59:24.822Z,100.00
2023-06-07T19:01:55.382Z,100.00
2023-06-07T19:04:23.009Z,100.00
2023-06-07T19:06:51.926Z,100.00
2023-06-07T19:09:18.888Z,100.00
2023-06-07T19:11:45.811Z,100.00
2023-06-07T19:14:12.291Z,100.00
2023-06-07T19:16:39.136Z,100.00
2023-06-07T19:19:06.761Z,100.00
2023-06-07T19:21:33.436Z,100.00
2023-06-07T19:24:03.195Z,100.00
2023-06-07T19:26:31.008Z,100.00
2023-06-07T19:29:00.390Z,100.00
2023-06-07T19:31:27.123Z,100.00
2023-06-07T19:33:54.382Z,100.00
2023-06-07T19:36:21.118Z,100.00
2023-06-07T19:38:47.758Z,100.00
2023-06-07T19:41:14.317Z,100.00
2023-06-07T19:43:41.220Z,100.00
2023-06-07T19:46:08.267Z,100.00
2023-06-07T19:48:35.187Z,100.00
2023-06-07T19:51:01.976Z,100.00
2023-06-07T19:53:28.815Z,100.00
2023-06-07T19:55:56.364Z,100.00
2023-06-07T19:58:23.280Z,100.00
2023-06-07T20:00:50.133Z,100.00
2023-06-07T20:03:17.190Z,100.00
2023-06-07T20:05:43.883Z,100.00
2023-06-07T20:08:11.724Z,100.00
2023-06-07T20:10:38.453Z,100.00
2023-06-07T20:13:05.089Z,100.00
2023-06-07T20:15:31.899Z,100.00
2023-06-07T20:17:58.738Z,100.00
2023-06-07T20:20:26.107Z,100.00
2023-06-07T20:22:52.746Z,100.00
2023-06-07T20:25:19.472Z,100.00
2023-06-07T20:27:46.220Z,100.00
2023-06-07T20:30:13.091Z,100.00
2023-06-07T20:32:39.830Z,100.00
2023-06-07T20:35:06.754Z,100.00
2023-06-07T20:37:35.188Z,100.00
2023-06-07T20:40:01.894Z,100.00
2023-06-07T20:42:28.577Z,100.00
2023-06-07T20:44:55.256Z,100.00
2023-06-07T20:47:22.195Z,100.00
2023-06-07T20:49:49.147Z,100.00
2023-06-07T20:52:15.982Z,100.00
2023-06-07T20:54:42.625Z,100.00
2023-06-07T20:57:09.364Z,100.00
2023-06-07T20:59:36.222Z,100.00
2023-06-07T21:02:03.181Z,100.00
2023-06-07T21:04:29.928Z,100.00
2023-06-07T21:06:58.796Z,100.00
2023-06-07T21:09:25.945Z,100.00
2023-06-07T21:11:52.770Z,100.00
2023-06-07T21:14:19.667Z,100.00
2023-06-07T21:16:48.206Z,100.00
2023-06-07T21:19:15.533Z,100.00
2023-06-07T21:21:42.206Z,100.00
2023-06-07T21:24:09.177Z,100.00
2023-06-07T21:26:36.065Z,100.00
2023-06-07T21:29:03.197Z,100.00
2023-06-07T21:31:30.090Z,100.00
2023-06-07T21:34:00.990Z,100.00
2023-06-07T21:36:28.333Z,100.00
2023-06-07T21:38:56.653Z,100.00
2023-06-07T21:41:24.102Z,100.00
2023-06-07T21:43:50.885Z,100.00
2023-06-07T21:46:17.736Z,100.00
2023-06-07T21:48:44.684Z,100.00
2023-06-07T21:51:11.388Z,100.00
2023-06-07T21:53:38.140Z,100.00
2023-06-07T21:56:05.143Z,100.00
2023-06-07T21:58:31.904Z,100.00
2023-06-07T22:00:58.793Z,100.00
2023-06-07T22:03:25.596Z,100.00
2023-06-07T22:05:52.309Z,100.00
2023-06-07T22:08:19.093Z,100.00
2023-06-07T22:10:45.936Z,100.00
2023-06-07T22:13:13.807Z,100.00
2023-06-07T22:15:41.974Z,100.00
2023-06-07T22:18:11.319Z,100.00
2023-06-07T22:20:39.234Z,100.00
2023-06-07T22:23:08.420Z,100.00
2023-06-07T22:25:41.036Z,100.00
2023-06-07T22:28:17.136Z,100.00
2023-06-07T22:30:45.741Z,100.00
2023-06-07T22:33:12.887Z,100.00
2023-06-07T22:35:40.841Z,100.00
2023-06-07T22:38:12.888Z,100.00
2023-06-07T22:40:40.761Z,100.00
2023-06-07T22:43:07.677Z,100.00
2023-06-07T22:45:34.449Z,100.00
2023-06-07T22:48:06.198Z,100.00
2023-06-07T22:50:35.364Z,100.00
2023-06-07T22:53:04.914Z,100.00
2023-06-07T22:55:32.802Z,100.00
2023-06-07T22:58:03.637Z,100.00
2023-06-07T23:00:30.513Z,100.00
2023-06-07T23:02:58.671Z,100.00
2023-06-07T23:05:28.427Z,100.00
2023-06-07T23:08:00.799Z,100.00
2023-06-07T23:10:37.189Z,100.00
2023-06-07T23:13:12.136Z,100.00
2023-06-07T23:15:42.546Z,100.00
2023-06-07T23:18:11.498Z,100.00
2023-06-07T23:20:41.386Z,100.00
2023-06-07T23:23:10.994Z,100.00
2023-06-07T23:25:38.306Z,100.00
2023-06-07T23:28:05.449Z,100.00
2023-06-07T23:30:32.300Z,100.00
2023-06-07T23:32:59.441Z,100.00
2023-06-07T23:35:26.543Z,100.00
2023-06-07T23:37:53.316Z,100.00
2023-06-07T23:40:22.239Z,100.00
2023-06-07T23:42:52.828Z,100.00
2023-06-07T23:45:20.363Z,100.00
2023-06-07T23:47:47.192Z,100.00
2023-06-07T23:50:14.102Z,100.00
2023-06-07T23:52:44.472Z,100.00
2023-06-07T23:55:11.403Z,100.00
2023-06-07T23:57:38.125Z,100.00
